La Paz, Mexico

11:18 AM MDT on August 27, 2014 (GMT -0600)
Gen Manuel Marquez De Leon | Change Station
CLOSE
Current Station
Airport
Location: La Paz,
Elevation: 69 ft
Nearby Weather Stations

Elev 69 ft 24.07 °N, 110.36 °W | Updated 37 minutes ago

Partly Cloudy
Partly Cloudy
88 °F
Feels Like 94 °F
N
0
Wind Variable Wind from North

Today
High -- | Low -- °F
--% Chance of Precip.
Yesterday
High -- | Low -- °F
Precip. -- in
7:01 AM 7:44 PM
Waxing Crescent, 4% visible
Pressure 29.96 in
Visibility 10.0 miles
Clouds Few 4500 ft
Heat Index 94 °F
Dew Point 72 °F
Humidity 58%
Rainfall 0.00 in
Snow Depth Not available.
UV 7 out of 12
Pollen Not available.
Air Quality Not available.
Flu Activity Not available.
METAR MMLP 271641Z 00000KT 10SM FEW045 31/22 A2996 RMK 8/100

More Conditions Fewer Conditions

Pressure 29.96 in
Visibility 10.0 miles
Clouds Few 4500 ft
Heat Index 94 °F
Dew Point 72 °F
Humidity 58%
Rainfall 0.00 in
Snow Depth Not available.
UV 7 out of 12
Pollen Not available.
Air Quality Not available.
Flu Activity Not available.
METAR MMLP 271641Z 00000KT 10SM FEW045 31/22 A2996 RMK 8/100

More Conditions Fewer Conditions

10-Day Weather Forecast

Almanac

Astronomy

Aug. 27, 2014 Rise Set
Actual Time 7:01 AM MDT 7:44 PM MDT
Civil Twilight 6:38 AM MDT 8:07 PM MDT
Nautical Twilight 6:10 AM MDT 8:34 PM MDT
Astronomical Twilight 5:43 AM MDT 9:02 PM MDT
Moon 8:43 AM MDT 8:58 PM MDT
Length of Visible Light 13h 29m
Length of Day
12h 42m
Tomorrow will be 1m 19s shorter.
Waxing Crescent, 4% of the Moon is Illuminated
Today
Waxing Crescent
Sep 2
First Quarter
Sep 8
Full
Sep 15
Last Quarter
Sep 24
New

Today's Extremes

Country Highs Country Lows

Community

WunderPhotos

Upload Photos

1,747,728 photos uploaded!

Nearby

Snow Depth

Not available.

Earthquake Activity

City Distance Mag. Time & Date
No recent earthquake activity has been reported nearby.
Minimum magnitude displayed is 2.5.

Coastal Water Temperatures

Place Temperature
No Stations Reporting

Nearby Weather Stations